Contact Us:
Email: info@sawbill.com
Phone: (218)663-7150
Fax: (218)663-7980
Mail: 4620 Sawbill Trail
Box 2129
Tofte, MN 55615


Powered by
Movable Type 3.15
 
Sawbill Weather History Archives: August 2013
Current Sawbill Weather History | « July 2013 | September 2013 »


Date

High
Temperature

Low
Temperature

Barometric
Pressure

Relative
Humidity 7AM

9 AM
Temperature

Moisture

Snow

8/31/13 74 60 29.82 96% 61 .23"
8/30/13 73 61 29.99 98% 62 0
8/29/13 77 63 30.00 98% 64 1.35"
8/28/13 83 60 30.06 78% 64 0
8/27/13 83 60 30.47 78% 60 0
8/26/13 83 65 30.39 84% 65 .05"
8/25/13 85 67 30.47 90% 67 Trace
8/24/13 77 54 30.39 95% 69 .23"
8/23/13 73 48 30.53 75% 54 0
8/22/13 72 48 30.59 68% 48 0
8/21/13 79 56 30.53 69% 56 0
8/20/13 83 69 30.33 67% 69 .05"
8/19/13 79 66 30.36 92% 70 0
8/18/13 77 62 30.39 71% 67 0
8/17/13 75 58 30.53 71% 62 0
8/16/13 75 48 30.56 72% 58 0
8/15/13 71 48 30.53 71% 48 0
8/14/13 70 39 30.30 92% 43 0
8/13/13 62 42 30.55 74% 45 0
8/12/13 63 51 30.53 78% 51 .05"
8/11/13 69 52 30.39 92% 56 .13"
8/10/13 72 44 30.30 93% 55 0
8/9/13 62 49 30.53 86% 51 .03"
8/8/13 65 48 30.30 83% 49 0
8/7/13 67 49 30.39 77% 49 0
8/6/13 69 54 30.24 84% 54 Trace
8/5/13 64 53 30.15 94% 57 .03"
8/4/13 68 45 30.30 88% 53 .1"
8/3/13 64 45 30.56 72% 45 0
8/2/13 70 51 30.45 81% 56 0
8/1/13 69 49 30.21 97% 54 Trace
 


Home I Trip Planning I Rentals and Outfitting I Reservations I Campgrounds I Sawbill Store I Sawbill News I Contact

© 1997 - 2017, Sawbill Canoe Outfitters, Inc. I Privacy Policy